Strona główna
METAR-TAF:

METAR-TAF

Lotnisko :

Port lotniczy Dżudda

Dżudda, Arabia Saudyjska

Szerokość geograficzna: 21-42N, Długość geograficzna: 039-11E, wysokość: 15 m

Aktualna obserwacja pogody

Raport powstał 34 minut temu, godzina 12:00 UTC
Wiatr 13 kt od zachodnio-północny zachód
Temperatura 29°C
Wilgotność 58%
Ciśnienie 1009 hPa
Widzialność: 8000 m
Mało chmury na wysokości 4000 ft

METAR: OEJN 281200Z 29013KT 8000 FEW040 29/20 Q1009 NOSIG

czas: 15:34 (12:34 UTC)

Prognoza

Raport powstał 1 godzina i 34 minut temu, godzina 11:00 UTC
Prognoza ważna od 28 godzina 12 UTC do 29 godzina 18 UTC
Wiatr 13 kt od zachodnio-południowy zachód
Widzialność 10 km lub więcej
Mało chmury na wysokości 4000 ft
Rozproszone chmury na wysokości 10000 ft
Stopniowe zmiany
od 28 godzina 15 UTC do 28 godzina 17 UTC
Wiatr 12 kt od zachodnio-północny zachód

TAF: OEJN 281100Z 2812/2918 25013KT 9999 FEW040 SCT100 BECMG 2815/2817 30012KT

Obserwacja i prognoza pogody dla ponad 4000 lotnisk (raport METAR i TAF).

Dostępne stacje oznaczono żółtymi i czerwonymi punktami na mapie.

Najedź kursorem aby zobaczyć nazwę stacji.

Kliknij aby zobaczyć obserwacje i prognozy pogody.

Aby zmienić mapę: kliknij na zielony przycisk z czarnym krzyżykiem, aby powiększyć; na zielony przycisk z myślnikiem, aby pomniejszyć; na zielone strzałki, aby przejść do map sąsiednich.


METAR-TAF: